Time;durP1;ratioP1;P1;durP2;ratioP2;P2;SDS_P1;SDS_P2;PMS_P1;PMS_P2;Temp;Humidity;BMP_temperature;BMP_pressure;BME280_temperature;BME280_humidity;BME280_pressure;Samples;Min_cycle;Max_cycle;Signal;HPM_P1;HPM_P2
2023/02/06 00:03:43;;;;;;;10.90;9.80;;;;;;;4.82;56.33;99971.34;8443824;28;20223;-68
2023/02/06 00:07:48;;;;;;;11.20;9.87;;;;;;;4.60;56.62;99970.25;8443558;28;20531;-67
2023/02/06 00:11:51;;;;;;;13.80;10.53;;;;;;;4.69;56.38;99982.31;8443834;28;20227;-67
2023/02/06 00:15:54;;;;;;;12.80;10.13;;;;;;;4.67;56.44;99982.31;8443526;28;20237;-68
2023/02/06 00:19:57;;;;;;;12.33;10.17;;;;;;;4.54;56.15;99974.44;8443287;28;20227;-67
2023/02/06 00:24:02;;;;;;;11.90;10.17;;;;;;;4.52;56.20;99977.00;8442862;28;20245;-67
2023/02/06 00:28:05;;;;;;;10.60;9.50;;;;;;;4.45;56.09;99990.59;8443128;28;20247;-67
2023/02/06 00:32:08;;;;;;;11.17;9.60;;;;;;;4.40;56.12;99981.94;8442788;28;20223;-67
2023/02/06 00:36:11;;;;;;;10.80;9.57;;;;;;;4.41;56.02;99983.69;8442411;28;20231;-67
2023/02/06 00:40:16;;;;;;;11.43;10.20;;;;;;;4.17;54.92;99973.97;8443038;28;20232;-68
2023/02/06 00:44:20;;;;;;;10.83;9.57;;;;;;;4.17;56.14;99974.84;8442985;28;20220;-67
2023/02/06 00:48:23;;;;;;;11.17;9.77;;;;;;;3.99;56.60;99965.19;8443018;28;20231;-67
2023/02/06 00:52:26;;;;;;;10.20;9.20;;;;;;;4.30;55.93;99969.03;8442634;28;20228;-67
2023/02/06 00:56:30;;;;;;;10.77;9.30;;;;;;;4.27;55.52;99968.13;8442392;28;20234;-67
2023/02/06 01:00:33;;;;;;;10.17;9.00;;;;;;;4.17;55.76;99966.25;8442809;28;20434;-67
2023/02/06 01:04:36;;;;;;;10.47;9.47;;;;;;;4.19;55.74;99968.03;8448647;28;20445;-67
2023/02/06 01:08:39;;;;;;;11.30;10.13;;;;;;;4.07;55.39;99967.84;8448653;28;20235;-67
2023/02/06 01:12:43;;;;;;;11.80;9.97;;;;;;;3.83;55.43;99946.16;8448404;28;20397;-67
2023/02/06 01:16:46;;;;;;;11.60;10.20;;;;;;;4.06;55.73;99973.84;8448254;28;20423;-68
2023/02/06 01:20:49;;;;;;;13.70;11.40;;;;;;;3.96;56.40;99959.13;8448414;28;20475;-68
2023/02/06 01:24:52;;;;;;;22.70;12.97;;;;;;;4.05;56.53;99974.66;8448314;28;20506;-67
2023/02/06 01:28:56;;;;;;;32.37;13.50;;;;;;;3.89;56.79;99965.91;8448264;28;20226;-67
2023/02/06 01:32:59;;;;;;;27.73;13.63;;;;;;;3.97;57.15;99981.38;8448216;28;20242;-67
2023/02/06 01:37:02;;;;;;;51.57;14.13;;;;;;;3.95;56.80;99972.81;8447840;28;20376;-67
2023/02/06 01:41:06;;;;;;;33.10;12.37;;;;;;;3.74;57.46;99976.78;8447864;28;20228;-67
2023/02/06 01:45:42;;;;;;;20.90;12.80;;;;;;;3.79;57.02;99977.72;8447929;28;20232;-67
2023/02/06 01:49:49;;;;;;;18.40;13.40;;;;;;;3.92;56.78;99971.06;8446983;28;20228;-67
2023/02/06 01:53:54;;;;;;;18.37;13.37;;;;;;;3.82;57.09;99975.19;8446993;28;20231;-67
2023/02/06 01:57:57;;;;;;;39.87;14.30;;;;;;;3.59;58.04;99987.63;8447373;28;20231;-67
2023/02/06 02:02:00;;;;;;;38.57;14.53;;;;;;;3.74;57.57;99986.16;8447257;28;20408;-68
2023/02/06 02:06:07;;;;;;;32.17;13.73;;;;;;;3.71;57.53;99995.53;8447109;28;20231;-67
2023/02/06 02:10:10;;;;;;;29.67;13.80;;;;;;;3.52;58.05;99988.38;8447297;28;20270;-68
2023/02/06 02:14:15;;;;;;;42.87;14.20;;;;;;;3.52;57.54;99979.00;8446036;28;20227;-67
2023/02/06 02:18:38;;;;;;;36.13;13.83;;;;;;;3.67;56.95;99963.00;8446487;28;20523;-67
2023/02/06 02:22:57;;;;;;;19.17;13.10;;;;;;;3.64;56.75;99950.16;8445565;28;20231;-67
2023/02/06 02:27:33;;;;;;;16.20;12.27;;;;;;;3.52;57.04;99950.81;8446148;28;20241;-67
2023/02/06 02:32:01;;;;;;;20.47;11.97;;;;;;;3.50;56.45;99967.00;8446037;28;20244;-67
2023/02/06 02:36:08;;;;;;;26.97;12.33;;;;;;;3.46;56.18;99953.25;8411770;28;20220;-67
2023/02/06 02:40:18;;;;;;;21.53;12.57;;;;;;;3.38;55.90;99954.00;8412125;28;20224;-67
2023/02/06 02:44:26;;;;;;;21.13;12.77;;;;;;;3.42;56.33;99972.00;8412186;28;20228;-67
2023/02/06 02:48:31;;;;;;;15.10;11.73;;;;;;;3.39;56.75;99979.66;8411998;28;20224;-67
2023/02/06 02:52:35;;;;;;;36.90;12.83;;;;;;;3.36;55.76;99964.22;8411912;28;20228;-67
2023/02/06 02:56:38;;;;;;;33.20;13.40;;;;;;;3.29;55.78;99960.69;8411731;28;20239;-67
2023/02/06 03:00:44;;;;;;;18.13;13.33;;;;;;;3.30;55.84;99948.75;8445110;28;20224;-68
2023/02/06 03:04:49;;;;;;;14.20;12.80;;;;;;;3.23;55.67;99964.84;8444584;28;20243;-67
2023/02/06 03:08:58;;;;;;;13.90;12.50;;;;;;;3.23;55.56;99967.41;8444397;28;20239;-67
2023/02/06 03:13:05;;;;;;;13.03;11.67;;;;;;;3.45;55.11;99956.69;8444490;28;20243;-68
2023/02/06 03:17:11;;;;;;;15.03;12.40;;;;;;;3.48;55.63;99954.19;8444077;28;20231;-67
2023/02/06 03:21:16;;;;;;;16.03;11.20;;;;;;;3.50;55.90;99960.19;8444090;28;20226;-68
2023/02/06 03:25:25;;;;;;;16.70;11.87;;;;;;;3.57;55.96;99957.72;8443180;28;20231;-67
2023/02/06 03:29:31;;;;;;;20.07;12.70;;;;;;;3.50;56.27;99961.88;8444228;28;20326;-67
2023/02/06 03:33:37;;;;;;;18.00;12.03;;;;;;;3.48;56.55;99966.09;8443547;28;20297;-68
2023/02/06 03:37:40;;;;;;;29.83;13.23;;;;;;;3.40;56.53;99955.75;8443830;28;20322;-68
2023/02/06 03:41:45;;;;;;;17.53;12.30;;;;;;;3.39;56.64;99961.72;8410492;28;20228;-67
2023/02/06 03:45:49;;;;;;;19.83;12.40;;;;;;;3.29;56.32;99970.06;8410657;28;20239;-67
2023/02/06 03:49:53;;;;;;;18.67;12.80;;;;;;;3.29;56.58;99973.50;8410526;28;20262;-68
2023/02/06 03:53:56;;;;;;;25.23;13.40;;;;;;;3.06;57.11;99979.91;8410055;28;20243;-67
2023/02/06 03:58:03;;;;;;;20.80;11.57;;;;;;;3.12;56.67;99970.66;8409932;28;20236;-68
2023/02/06 04:02:06;;;;;;;27.57;11.53;;;;;;;3.10;56.18;99994.47;8409770;28;20227;-67
2023/02/06 04:06:09;;;;;;;41.53;11.57;;;;;;;2.82;56.76;99993.09;8409605;28;20275;-68
2023/02/06 04:10:12;;;;;;;15.10;10.97;;;;;;;3.06;56.15;99997.81;8409274;28;20254;-68
2023/02/06 04:14:16;;;;;;;14.37;11.83;;;;;;;3.01;55.96;100005.44;8409243;28;20236;-68
2023/02/06 04:18:19;;;;;;;15.17;12.30;;;;;;;3.20;55.79;100006.63;8409298;28;20251;-68
2023/02/06 04:22:22;;;;;;;21.70;13.97;;;;;;;2.94;55.79;100006.13;8409282;28;20524;-68
2023/02/06 04:26:25;;;;;;;14.43;12.87;;;;;;;3.14;55.71;100011.63;8409169;28;20454;-68
2023/02/06 04:30:29;;;;;;;14.33;12.70;;;;;;;3.19;55.67;99989.53;8409461;28;20228;-67
2023/02/06 04:34:33;;;;;;;15.30;13.13;;;;;;;3.00;55.53;99967.84;8409540;28;20259;-67
2023/02/06 04:38:36;;;;;;;15.50;13.63;;;;;;;3.34;55.31;99981.25;8409233;28;20231;-67
2023/02/06 04:42:38;;;;;;;14.53;13.03;;;;;;;3.29;55.30;99976.06;8409673;28;20522;-67
2023/02/06 04:46:43;;;;;;;14.63;13.13;;;;;;;3.25;55.67;99966.59;8408544;28;20247;-67
2023/02/06 04:50:46;;;;;;;14.47;13.07;;;;;;;3.38;55.59;99988.16;8409321;28;20518;-67
2023/02/06 04:54:48;;;;;;;13.90;12.50;;;;;;;3.45;55.44;99984.00;8408631;28;20440;-67
2023/02/06 04:58:51;;;;;;;13.83;12.43;;;;;;;3.55;55.49;99982.44;8408747;28;20235;-68
2023/02/06 05:02:55;;;;;;;14.63;13.13;;;;;;;3.49;54.92;99973.81;8408887;28;20310;-67
2023/02/06 05:06:58;;;;;;;14.60;13.20;;;;;;;3.55;55.01;99970.50;8408641;28;20454;-68
2023/02/06 05:11:01;;;;;;;15.03;13.53;;;;;;;3.50;55.33;99970.44;8408863;28;20250;-67
2023/02/06 05:15:05;;;;;;;15.03;13.13;;;;;;;3.60;55.42;99944.94;8408760;28;20232;-67
2023/02/06 05:19:09;;;;;;;16.30;14.57;;;;;;;2.83;55.02;99823.38;8408225;28;20516;-67
2023/02/06 05:23:12;;;;;;;13.63;12.23;;;;;;;3.57;55.21;99945.75;8408652;28;20228;-68
2023/02/06 05:27:15;;;;;;;12.93;11.63;;;;;;;3.56;55.13;99928.69;8409005;28;20356;-68
2023/02/06 05:31:18;;;;;;;12.80;11.50;;;;;;;3.62;55.25;99954.38;8408534;28;20429;-66
2023/02/06 05:35:24;;;;;;;15.93;12.70;;;;;;;3.58;56.14;99941.50;8408304;28;20239;-67
2023/02/06 05:39:27;;;;;;;15.23;12.57;;;;;;;3.65;55.72;99945.88;8408753;28;20235;-67
2023/02/06 05:43:29;;;;;;;14.30;12.83;;;;;;;3.69;55.82;99960.47;8408589;28;20220;-68
2023/02/06 05:47:32;;;;;;;13.17;11.87;;;;;;;3.70;55.77;99986.13;8409074;28;20228;-66
2023/02/06 05:51:36;;;;;;;13.77;12.37;;;;;;;3.53;55.84;99997.78;8414836;28;20228;-66
2023/02/06 05:55:39;;;;;;;13.80;12.40;;;;;;;3.65;55.31;99985.16;8414526;28;20516;-67
2023/02/06 05:59:42;;;;;;;13.47;11.90;;;;;;;3.76;55.17;99984.50;8413876;28;20322;-67
2023/02/06 06:03:45;;;;;;;13.60;12.30;;;;;;;3.72;55.84;99989.56;8414053;28;20233;-66
2023/02/06 06:07:49;;;;;;;13.87;12.47;;;;;;;3.64;55.65;99973.22;8414368;28;20334;-66
2023/02/06 06:11:52;;;;;;;15.17;13.50;;;;;;;3.72;56.16;99983.56;8414332;28;20239;-67
2023/02/06 06:15:55;;;;;;;16.17;13.97;;;;;;;3.59;56.69;99974.84;8414169;28;20236;-67
2023/02/06 06:19:58;;;;;;;18.90;15.53;;;;;;;3.85;55.83;99979.50;8413802;28;20558;-66
2023/02/06 06:24:02;;;;;;;18.40;15.17;;;;;;;3.83;56.08;99966.66;8412515;28;20247;-66
2023/02/06 06:28:05;;;;;;;19.30;16.27;;;;;;;3.95;55.31;99968.53;8413343;28;20228;-66
2023/02/06 06:32:09;;;;;;;20.47;15.93;;;;;;;3.75;56.27;99964.81;8412171;28;20235;-67
2023/02/06 06:36:12;;;;;;;17.00;15.13;;;;;;;3.88;55.79;99969.28;8413553;28;20231;-66
2023/02/06 06:40:18;;;;;;;15.37;13.63;;;;;;;3.98;55.90;99968.59;8413000;28;20228;-66
2023/02/06 06:44:21;;;;;;;17.97;15.03;;;;;;;3.97;55.28;99986.50;8412989;28;20224;-66
2023/02/06 06:48:24;;;;;;;15.80;14.17;;;;;;;3.96;55.12;99965.16;8412834;28;20228;-66
2023/02/06 06:52:27;;;;;;;15.67;13.97;;;;;;;3.91;55.74;99961.66;8412121;28;20236;-66
2023/02/06 06:56:31;;;;;;;15.90;13.27;;;;;;;3.99;55.64;99964.31;8412581;28;20232;-66
2023/02/06 07:00:34;;;;;;;15.63;13.97;;;;;;;3.95;55.55;99965.97;8412497;28;20220;-66
2023/02/06 07:04:37;;;;;;;14.00;12.57;;;;;;;3.90;55.90;99957.34;8412665;28;20535;-66
2023/02/06 07:08:40;;;;;;;13.67;12.27;;;;;;;3.91;55.97;99972.75;8412760;28;20423;-67
2023/02/06 07:12:45;;;;;;;14.97;13.47;;;;;;;4.10;55.68;99971.31;8412133;28;20241;-66
2023/02/06 07:16:48;;;;;;;15.80;13.77;;;;;;;4.01;55.56;99968.63;8412155;28;20236;-67
2023/02/06 07:20:51;;;;;;;13.77;12.00;;;;;;;4.00;56.10;99973.72;8412828;28;20220;-66
2023/02/06 07:24:54;;;;;;;14.33;12.90;;;;;;;4.04;55.81;99971.25;8412240;28;20566;-66
2023/02/06 07:28:58;;;;;;;15.90;13.97;;;;;;;4.02;56.06;99970.34;8412107;28;20231;-66
2023/02/06 07:33:01;;;;;;;13.93;12.53;;;;;;;4.10;56.14;99971.31;8411645;28;20244;-67
2023/02/06 07:37:04;;;;;;;15.20;13.60;;;;;;;4.18;56.03;99963.72;8411333;28;20234;-67
2023/02/06 07:41:07;;;;;;;16.37;14.67;;;;;;;4.11;55.69;99959.34;8411510;28;20227;-67
2023/02/06 07:45:11;;;;;;;16.30;14.33;;;;;;;3.38;56.28;99856.66;8411210;28;20419;-67
2023/02/06 07:49:14;;;;;;;15.37;13.67;;;;;;;4.31;55.60;99949.38;8410986;28;20231;-66
2023/02/06 07:53:17;;;;;;;15.70;14.10;;;;;;;4.21;55.84;99958.66;8410576;28;20416;-66
2023/02/06 07:57:20;;;;;;;15.03;13.40;;;;;;;4.18;56.37;99976.56;8410563;28;20228;-66
2023/02/06 08:01:24;;;;;;;16.57;14.70;;;;;;;4.06;56.14;99984.94;8410581;28;20224;-66
2023/02/06 08:05:28;;;;;;;15.67;13.93;;;;;;;4.25;56.02;99987.78;8410562;28;20228;-66
2023/02/06 08:09:31;;;;;;;16.67;14.97;;;;;;;4.15;56.59;99978.22;8410674;28;20679;-65
2023/02/06 08:13:34;;;;;;;17.27;15.47;;;;;;;4.01;56.29;99960.94;8410277;28;20227;-66
2023/02/06 08:17:41;;;;;;;17.70;15.53;;;;;;;4.27;56.15;99993.78;8410158;28;20248;-66
2023/02/06 08:21:44;;;;;;;17.83;16.03;;;;;;;4.20;56.24;99987.69;8409954;28;20231;-66
2023/02/06 08:25:47;;;;;;;19.73;17.63;;;;;;;4.37;56.24;99984.50;8409848;28;20236;-65
2023/02/06 08:29:50;;;;;;;18.27;16.30;;;;;;;4.36;56.64;99981.09;8410321;28;20232;-66
2023/02/06 08:33:55;;;;;;;16.63;14.77;;;;;;;4.40;56.00;99964.00;8409660;28;20228;-66
2023/02/06 08:37:59;;;;;;;15.60;13.73;;;;;;;4.62;55.83;99967.69;8410137;28;20232;-66
2023/02/06 08:42:04;;;;;;;14.60;13.10;;;;;;;4.74;55.48;99964.41;8410603;28;20224;-66
2023/02/06 08:46:07;;;;;;;16.10;14.50;;;;;;;4.72;55.41;99932.72;8410121;28;20235;-66
2023/02/06 08:50:11;;;;;;;15.93;14.30;;;;;;;4.92;55.26;99944.06;8409783;28;20472;-66
2023/02/06 08:54:16;;;;;;;16.13;14.17;;;;;;;4.86;54.82;99931.19;8410491;28;20243;-66
2023/02/06 08:58:19;;;;;;;15.23;13.63;;;;;;;5.00;54.89;99939.84;8410124;28;20228;-66
2023/02/06 09:02:22;;;;;;;15.20;13.20;;;;;;;4.88;54.52;99935.47;8410145;28;20547;-66
2023/02/06 09:06:26;;;;;;;15.00;13.27;;;;;;;5.03;54.91;99949.31;8410122;28;20299;-66
2023/02/06 09:10:29;;;;;;;14.83;13.27;;;;;;;4.98;55.64;99950.97;8410189;28;20228;-66
2023/02/06 09:14:34;;;;;;;16.90;13.60;;;;;;;5.05;54.38;99945.91;8409939;28;20224;-66
2023/02/06 09:18:37;;;;;;;15.83;14.23;;;;;;;4.81;55.41;99928.53;8409684;28;20312;-66
2023/02/06 09:22:43;;;;;;;15.20;13.53;;;;;;;4.98;54.81;99922.72;8409782;28;20229;-67
2023/02/06 09:26:46;;;;;;;16.60;14.80;;;;;;;5.11;54.19;99909.16;8423601;28;20285;-67
2023/02/06 09:31:01;;;;;;;13.90;12.40;;;;;;;5.28;54.08;99896.44;8414851;28;20264;-67
2023/02/06 09:35:05;;;;;;;14.20;12.73;;;;;;;5.68;52.83;99878.75;8415575;28;20232;-66
2023/02/06 09:39:10;;;;;;;14.87;13.33;;;;;;;5.29;53.80;99872.47;8415197;28;20347;-66
2023/02/06 09:43:13;;;;;;;14.07;12.27;;;;;;;5.76;53.12;99894.22;8415147;28;20228;-66
2023/02/06 09:47:21;;;;;;;13.50;11.93;;;;;;;5.84;52.74;99875.38;8414865;28;20515;-67
2023/02/06 09:51:32;;;;;;;12.90;11.53;;;;;;;5.71;52.92;99870.19;8414388;28;20230;-67
2023/02/06 09:55:40;;;;;;;13.93;11.87;;;;;;;5.86;52.98;99872.81;8414915;28;20398;-67
2023/02/06 09:59:46;;;;;;;12.63;11.33;;;;;;;5.86;53.26;99875.41;8414481;28;20398;-67
2023/02/06 10:04:03;;;;;;;12.67;11.33;;;;;;;5.79;53.39;99877.09;8414474;28;20225;-67
2023/02/06 10:08:14;;;;;;;16.27;12.13;;;;;;;5.92;53.51;99875.47;8414697;28;20293;-66
2023/02/06 10:12:23;;;;;;;15.97;11.83;;;;;;;5.71;53.77;99860.75;8414855;28;20228;-67
2023/02/06 10:16:35;;;;;;;11.97;10.70;;;;;;;5.53;53.54;99789.53;8414446;28;20413;-67
2023/02/06 10:20:40;;;;;;;12.53;11.33;;;;;;;6.01;54.38;99860.06;8414114;28;20532;-67
2023/02/06 10:24:47;;;;;;;12.70;11.50;;;;;;;5.13;54.82;99737.09;8413059;28;20239;-68
2023/02/06 10:28:54;;;;;;;13.43;12.03;;;;;;;6.05;54.55;99868.66;8415106;28;20231;-67
2023/02/06 10:33:01;;;;;;;13.53;12.13;;;;;;;6.18;54.01;99849.00;8413929;28;20547;-67
2023/02/06 10:37:24;;;;;;;12.20;11.00;;;;;;;6.27;53.71;99856.75;8413725;28;20231;-67
2023/02/06 10:41:34;;;;;;;19.50;17.50;;;;;;;6.44;52.10;99860.22;8414021;28;20235;-67
2023/02/06 10:45:43;;;;;;;13.40;11.60;;;;;;;6.67;52.34;99840.56;8413349;28;20236;-67
2023/02/06 10:49:48;;;;;;;13.17;10.47;;;;;;;6.70;52.23;99838.84;8413364;28;20535;-67
2023/02/06 10:53:54;;;;;;;13.00;11.03;;;;;;;6.35;52.77;99825.91;8414100;28;20414;-68
2023/02/06 10:58:12;;;;;;;11.87;10.67;;;;;;;5.99;52.34;99722.91;8413627;28;20245;-68
2023/02/06 11:02:22;;;;;;;12.10;10.80;;;;;;;6.64;52.98;99805.34;8413149;28;20225;-68
2023/02/06 11:06:27;;;;;;;13.03;11.50;;;;;;;6.58;53.39;99787.31;8413345;28;20236;-68
2023/02/06 11:10:31;;;;;;;12.90;10.80;;;;;;;6.82;53.27;99791.63;8413352;28;20220;-66
2023/02/06 11:14:36;;;;;;;11.00;9.53;;;;;;;6.84;53.08;99800.22;8413430;28;20270;-66
2023/02/06 11:18:44;;;;;;;13.33;10.83;;;;;;;6.35;54.19;99783.00;8412578;28;20551;-66
2023/02/06 11:22:47;;;;;;;30.03;21.30;;;;;;;6.32;54.97;99789.84;8412303;28;20231;-66
2023/02/06 11:26:57;;;;;;;9.90;9.00;;;;;;;6.58;52.67;99784.75;8412626;28;20339;-66
2023/02/06 11:31:02;;;;;;;7.73;6.97;;;;;;;10.53;70.21;99760.44;8411920;28;20232;-67
2023/02/06 11:35:16;;;;;;;7.80;7.03;;;;;;;11.07;57.02;99781.13;8411749;28;20260;-67
2023/02/06 11:39:26;;;;;;;8.23;7.47;;;;;;;11.15;49.54;99776.66;8411700;28;20235;-68
2023/02/06 11:43:32;;;;;;;10.20;8.50;;;;;;;8.47;47.12;99773.88;8411436;28;20225;-67
2023/02/06 11:47:36;;;;;;;9.40;8.50;;;;;;;8.31;48.47;99782.59;8410398;28;20485;-68
2023/02/06 11:51:50;;;;;;;10.77;8.67;;;;;;;7.91;48.66;99751.84;8411067;28;20523;-67
2023/02/06 11:56:02;;;;;;;10.07;9.07;;;;;;;7.78;49.35;99767.38;8411146;28;20225;-67
2023/02/06 12:00:19;;;;;;;9.63;8.20;;;;;;;7.55;50.07;99772.59;8410550;28;20531;-67
2023/02/06 12:04:24;;;;;;;9.50;8.00;;;;;;;7.27;51.10;99774.41;8410973;28;20240;-68
2023/02/06 12:08:36;;;;;;;10.40;8.30;;;;;;;7.34;51.30;99764.94;8410759;28;20236;-67
2023/02/06 12:12:42;;;;;;;10.17;9.17;;;;;;;7.17;51.86;99758.09;8411005;28;20535;-67
2023/02/06 12:16:45;;;;;;;12.03;10.03;;;;;;;6.98;52.20;99757.28;8443569;28;20418;-68
2023/02/06 12:20:52;;;;;;;12.27;10.73;;;;;;;7.07;51.94;99753.00;8444020;28;20247;-68
2023/02/06 12:24:58;;;;;;;9.90;8.80;;;;;;;7.13;52.27;99750.41;8443719;28;20238;-67
2023/02/06 12:29:04;;;;;;;10.83;9.70;;;;;;;6.70;53.53;99735.84;8443881;28;20809;-67
2023/02/06 12:33:13;;;;;;;12.70;11.13;;;;;;;6.65;53.49;99732.41;8443665;28;20223;-68
2023/02/06 12:37:20;;;;;;;10.67;9.57;;;;;;;6.91;53.29;99722.09;8443756;28;20538;-68
2023/02/06 12:41:35;;;;;;;9.93;8.47;;;;;;;6.73;52.65;99730.69;8443030;28;20231;-68
2023/02/06 12:45:43;;;;;;;8.87;7.90;;;;;;;6.73;53.41;99730.69;8443000;28;20578;-66
2023/02/06 12:49:52;;;;;;;8.40;6.93;;;;;;;6.10;53.98;99735.78;8442694;28;20246;-66
2023/02/06 12:53:58;;;;;;;8.07;6.73;;;;;;;6.22;53.93;99699.78;8443337;28;20243;-69
2023/02/06 12:58:03;;;;;;;8.83;7.17;;;;;;;6.54;53.33;99723.84;8445606;28;20262;-66
2023/02/06 13:02:17;;;;;;;8.10;7.30;;;;;;;6.76;53.37;99725.53;8449394;28;20406;-66
2023/02/06 13:06:21;;;;;;;9.23;8.33;;;;;;;6.59;53.11;99712.69;8449388;28;20223;-66
2023/02/06 13:10:26;;;;;;;8.97;8.10;;;;;;;6.68;52.73;99710.94;8449488;28;20227;-67
2023/02/06 13:14:30;;;;;;;8.93;8.03;;;;;;;6.70;53.09;99698.94;8449486;28;20511;-66
2023/02/06 13:18:53;;;;;;;8.03;7.30;;;;;;;6.64;52.66;99712.66;8448846;28;20227;-66
2023/02/06 13:23:22;;;;;;;7.67;6.90;;;;;;;6.78;53.26;99725.56;8448892;28;20229;-66
2023/02/06 13:27:27;;;;;;;8.10;6.83;;;;;;;6.65;53.56;99746.13;8449268;28;20224;-66
2023/02/06 13:31:34;;;;;;;7.93;7.10;;;;;;;6.12;54.36;99741.78;8448661;28;20219;-66
2023/02/06 13:35:54;;;;;;;8.03;7.17;;;;;;;6.50;53.74;99747.88;8448593;28;20239;-66
2023/02/06 13:40:19;;;;;;;8.20;6.73;;;;;;;6.55;53.44;99710.09;8414777;28;20240;-66
2023/02/06 13:44:26;;;;;;;7.33;6.53;;;;;;;6.50;53.83;99742.72;8414732;28;20318;-67
2023/02/06 13:49:04;;;;;;;8.50;7.60;;;;;;;6.30;54.07;99734.97;8414650;28;20220;-68
2023/02/06 13:53:39;;;;;;;8.80;7.10;;;;;;;6.36;53.79;99712.69;8414536;28;20220;-68
2023/02/06 13:57:53;;;;;;;8.30;7.50;;;;;;;6.59;53.63;99735.84;8399243;28;20311;-68
2023/02/06 14:01:56;;;;;;;9.30;8.03;;;;;;;6.81;53.60;99722.94;8414575;28;20228;-68
2023/02/06 14:06:08;;;;;;;12.40;8.77;;;;;;;6.63;53.82;99705.81;8414392;28;20232;-68
2023/02/06 14:10:29;;;;;;;9.67;7.60;;;;;;;6.74;53.97;99713.50;8413498;28;20221;-68
2023/02/06 14:14:43;;;;;;;9.43;8.47;;;;;;;6.74;54.06;99716.97;8414208;28;20224;-68
2023/02/06 14:18:51;;;;;;;8.63;7.73;;;;;;;6.44;54.82;99717.84;8413857;28;20322;-68
2023/02/06 14:23:04;;;;;;;11.70;9.57;;;;;;;6.36;54.20;99719.53;8414063;28;20228;-68
2023/02/06 14:27:20;;;;;;;8.17;7.30;;;;;;;6.28;54.86;99718.66;8413866;28;20224;-68
2023/02/06 14:31:35;;;;;;;10.40;8.10;;;;;;;6.24;55.03;99715.22;8414185;28;20300;-68
2023/02/06 14:35:46;;;;;;;8.97;7.77;;;;;;;6.39;55.01;99720.38;8419668;28;20232;-68
2023/02/06 14:39:52;;;;;;;9.83;7.70;;;;;;;6.42;54.75;99722.13;8413630;28;20221;-68
2023/02/06 14:43:54;;;;;;;9.40;7.80;;;;;;;6.34;55.67;99709.25;8413745;28;20235;-68
2023/02/06 14:48:00;;;;;;;8.77;7.87;;;;;;;6.22;55.90;99707.50;8413957;28;20239;-68
2023/02/06 14:52:04;;;;;;;8.83;7.03;;;;;;;6.20;55.92;99708.38;8413531;28;20231;-68
2023/02/06 14:56:15;;;;;;;8.60;7.40;;;;;;;6.42;54.97;99714.41;8413474;28;20519;-68
2023/02/06 15:00:20;;;;;;;10.07;7.63;;;;;;;6.24;55.07;99710.09;8412934;28;20239;-68
2023/02/06 15:04:24;;;;;;;9.17;7.53;;;;;;;6.11;55.12;99688.66;8412609;28;20224;-69
2023/02/06 15:08:27;;;;;;;9.30;7.70;;;;;;;6.24;54.74;99702.38;8412637;28;20243;-66
2023/02/06 15:12:32;;;;;;;10.80;7.57;;;;;;;6.31;54.75;99703.25;8412257;28;20224;-69
2023/02/06 15:16:45;;;;;;;10.17;8.40;;;;;;;6.26;54.76;99706.69;8412164;28;20251;-67
2023/02/06 15:20:53;;;;;;;12.07;7.73;;;;;;;5.90;55.22;99686.84;8411840;28;20374;-67
2023/02/06 15:25:14;;;;;;;8.33;7.20;;;;;;;5.66;55.21;99683.38;8411850;28;20232;-67
2023/02/06 15:29:22;;;;;;;8.00;6.87;;;;;;;6.20;54.82;99710.94;8411723;28;20239;-67
2023/02/06 15:33:26;;;;;;;9.70;6.60;;;;;;;6.14;55.26;99711.78;8411546;28;20527;-67
2023/02/06 15:37:31;;;;;;;8.57;6.90;;;;;;;5.88;55.07;99712.56;8411556;28;20532;-67
2023/02/06 15:41:35;;;;;;;8.77;7.17;;;;;;;6.03;54.62;99740.06;8411413;28;20523;-67
2023/02/06 15:45:40;;;;;;;8.90;6.73;;;;;;;5.75;55.23;99735.66;8411127;28;20228;-67
2023/02/06 15:49:45;;;;;;;8.03;6.03;;;;;;;5.60;55.54;99721.06;8410443;28;20228;-67
2023/02/06 15:53:49;;;;;;;7.50;6.80;;;;;;;5.60;55.82;99726.19;8411122;28;20236;-67
2023/02/06 15:57:53;;;;;;;7.57;6.27;;;;;;;5.63;55.34;99718.47;8410737;28;20232;-67
2023/02/06 16:01:58;;;;;;;9.60;6.80;;;;;;;5.43;56.77;99728.69;8411042;28;20224;-67
2023/02/06 16:06:01;;;;;;;8.23;7.33;;;;;;;5.67;55.52;99723.66;8410781;28;20635;-67
2023/02/06 16:10:17;;;;;;;10.70;8.77;;;;;;;5.44;55.92;99702.13;8410775;28;20451;-67
2023/02/06 16:14:24;;;;;;;14.63;10.90;;;;;;;5.67;56.04;99736.50;8410350;28;20239;-67
2023/02/06 16:18:31;;;;;;;17.53;12.37;;;;;;;5.77;55.97;99744.22;8413583;28;20266;-67
2023/02/06 16:22:36;;;;;;;8.67;7.77;;;;;;;5.53;56.57;99742.44;8410634;28;20325;-67
2023/02/06 16:26:45;;;;;;;8.77;6.80;;;;;;;5.73;56.35;99752.78;8410713;28;20435;-68
2023/02/06 16:30:54;;;;;;;7.60;6.73;;;;;;;5.44;55.86;99714.97;8409780;28;20232;-67
2023/02/06 16:35:00;;;;;;;8.73;7.20;;;;;;;5.66;56.41;99737.34;8408506;28;20327;-67
2023/02/06 16:39:03;;;;;;;7.30;6.57;;;;;;;5.68;56.92;99747.63;8410609;28;20311;-66
2023/02/06 16:43:08;;;;;;;8.73;7.80;;;;;;;5.52;57.41;99744.16;8410191;28;20235;-67
2023/02/06 16:47:14;;;;;;;8.90;7.40;;;;;;;5.30;56.94;99699.50;8410278;28;20236;-68
2023/02/06 16:51:20;;;;;;;7.33;6.60;;;;;;;5.51;56.96;99752.69;8408657;28;20231;-66
2023/02/06 16:55:26;;;;;;;6.60;5.97;;;;;;;5.50;55.99;99763.81;8409891;28;20225;-67
2023/02/06 16:59:28;;;;;;;6.60;5.90;;;;;;;5.57;56.75;99763.00;8409213;28;20423;-66
2023/02/06 17:03:31;;;;;;;7.03;5.97;;;;;;;5.57;56.53;99768.16;8409482;28;20231;-66
2023/02/06 17:07:36;;;;;;;7.63;6.40;;;;;;;5.23;56.43;99731.16;8409575;28;20246;-67
2023/02/06 17:11:39;;;;;;;8.67;6.53;;;;;;;5.24;57.42;99774.81;8408328;28;20224;-67
2023/02/06 17:15:42;;;;;;;6.40;5.80;;;;;;;5.64;56.61;99784.47;8409195;28;20224;-67
2023/02/06 17:19:46;;;;;;;8.67;6.43;;;;;;;5.33;57.12;99763.75;8410042;28;20259;-67
2023/02/06 17:23:51;;;;;;;8.17;6.47;;;;;;;5.48;56.30;99765.53;8409965;28;20322;-67
2023/02/06 17:27:55;;;;;;;9.33;8.27;;;;;;;5.42;56.59;99776.63;8409317;28;20232;-67
2023/02/06 17:31:58;;;;;;;10.00;7.27;;;;;;;5.06;58.01;99774.69;8409425;28;20406;-68
2023/02/06 17:36:02;;;;;;;10.27;7.70;;;;;;;5.56;55.98;99783.56;8409627;28;20342;-68
2023/02/06 17:40:07;;;;;;;14.13;10.30;;;;;;;5.34;56.70;99734.63;8409539;28;20530;-67
2023/02/06 17:44:11;;;;;;;11.27;10.10;;;;;;;5.54;56.36;99768.16;8410807;28;20225;-67
2023/02/06 17:48:14;;;;;;;7.67;6.87;;;;;;;5.02;56.26;99670.25;8414282;28;20231;-68
2023/02/06 17:52:18;;;;;;;9.67;7.57;;;;;;;5.65;55.92;99776.78;8415528;28;20531;-67
2023/02/06 17:56:22;;;;;;;7.03;5.83;;;;;;;5.52;55.88;99779.25;8415066;28;20358;-67
2023/02/06 18:00:25;;;;;;;8.27;6.07;;;;;;;5.65;56.00;99786.16;8414636;28;20232;-67
2023/02/06 18:04:28;;;;;;;6.57;5.50;;;;;;;5.60;56.01;99788.72;8414973;28;20224;-68
2023/02/06 18:08:31;;;;;;;6.63;5.47;;;;;;;5.74;55.66;99798.22;8414627;28;20232;-67
2023/02/06 18:12:38;;;;;;;5.40;4.70;;;;;;;5.09;55.39;99734.50;8414721;28;20227;-68
2023/02/06 18:16:41;;;;;;;6.07;4.97;;;;;;;5.59;55.17;99811.84;8413919;28;20236;-68
2023/02/06 18:20:44;;;;;;;5.20;4.70;;;;;;;5.62;55.12;99811.88;8414592;28;20228;-67
2023/02/06 18:24:48;;;;;;;4.60;4.10;;;;;;;5.66;54.94;99822.19;8414169;28;20577;-67
2023/02/06 18:28:52;;;;;;;4.67;4.20;;;;;;;5.37;55.81;99814.31;8414263;28;20235;-67
2023/02/06 18:32:55;;;;;;;5.03;4.20;;;;;;;5.54;54.85;99822.13;8414314;28;20232;-67
2023/02/06 18:36:58;;;;;;;6.30;4.57;;;;;;;5.60;55.45;99811.00;8414302;28;20246;-67
2023/02/06 18:41:02;;;;;;;6.40;4.83;;;;;;;5.54;55.65;99819.56;8414147;28;20293;-68
2023/02/06 18:45:08;;;;;;;6.40;3.53;;;;;;;8.64;79.69;99830.59;8414321;28;20375;-68
2023/02/06 18:49:11;;;;;;;3.20;2.90;;;;;;;9.39;60.13;99826.53;8413956;28;20261;-67
2023/02/06 18:53:14;;;;;;;4.03;3.63;;;;;;;7.30;53.40;99804.47;8413592;28;20228;-68
2023/02/06 18:57:17;;;;;;;3.87;3.53;;;;;;;6.85;53.13;99815.69;8413165;28;20236;-69
2023/02/06 19:01:23;;;;;;;4.27;3.87;;;;;;;6.52;53.73;99826.78;8413310;28;20239;-66
2023/02/06 19:05:27;;;;;;;11.40;10.23;;;;;;;6.31;53.80;99837.91;8413293;28;20228;-67
2023/02/06 19:09:30;;;;;;;8.60;7.77;;;;;;;6.31;54.22;99832.75;8413308;28;20228;-67
2023/02/06 19:13:34;;;;;;;4.43;4.10;;;;;;;6.29;54.43;99834.47;8413106;28;20249;-67
2023/02/06 19:17:38;;;;;;;7.93;6.73;;;;;;;6.14;54.65;99837.84;8413452;28;20231;-67